| Date | Time | Temp. (oF) | Dew Point (oF) | Rel. Hum. (%) | Press. (in.) | Wind Dir. | Wind Speed (mph) | Hourly Rainfall (in.) |
|
|---|---|---|---|---|---|---|---|---|---|
| 1 | 01/10 | 00:00 | 46 | 30 | 54 | 29.43 | SSW | 5 | 0.00 |
| 2 | 01/09 | 23:00 | 43 | 32 | 65 | 29.44 | WSW | 6 | 0.00 |
| 3 | 01/09 | 22:00 | 35 | 30 | 82 | 29.44 | SSE | 2 | 0.00 |
| 4 | 01/09 | 21:00 | 38 | 31 | 76 | 29.45 | SSE | 0 | 0.00 |
| 5 | 01/09 | 20:00 | 40 | 31 | 71 | 29.45 | WSW | 2 | 0.00 |
| 6 | 01/09 | 19:00 | 43 | 31 | 63 | 29.43 | SW | 1 | 0.00 |
| 7 | 01/09 | 18:00 | 46 | 31 | 56 | 29.44 | SSW | 0 | 0.00 |
| 8 | 01/09 | 17:00 | 50 | 30 | 47 | 29.41 | SW | 4 | 0.00 |
| 9 | 01/09 | 16:00 | 54 | 33 | 45 | 29.40 | S | 6 | 0.00 |
| 10 | 01/09 | 15:00 | 54 | 33 | 46 | 29.39 | WSW | 10 | 0.00 |
| 11 | 01/09 | 14:00 | 53 | 34 | 49 | 29.38 | NW | 9 | 0.00 |
| 12 | 01/09 | 13:00 | 51 | 34 | 54 | 29.40 | WNW | 6 | 0.00 |
| 13 | 01/09 | 12:00 | 50 | 34 | 56 | 29.41 | WNW | 10 | 0.00 |
| 14 | 01/09 | 11:00 | 48 | 33 | 57 | 29.43 | WNW | 16 | 0.00 |
| 15 | 01/09 | 10:00 | 49 | 34 | 58 | 29.40 | W | 12 | 0.00 |
| 16 | 01/09 | 09:00 | 46 | 32 | 60 | 29.36 | SW | 6 | 0.00 |
| 17 | 01/09 | 08:00 | 45 | 33 | 63 | 29.31 | W | 9 | 0.00 |
| 18 | 01/09 | 07:00 | 45 | 32 | 62 | 29.27 | W | 15 | 0.00 |
| 19 | 01/09 | 06:00 | 46 | 33 | 62 | 29.23 | WNW | 15 | 0.00 |
| 20 | 01/09 | 05:00 | 45 | 34 | 67 | 29.18 | WSW | 7 | 0.00 |
| 21 | 01/09 | 04:00 | 40 | 37 | 89 | 29.16 | W | 8 | 0.00 |
| 22 | 01/09 | 03:00 | 30 | 29 | 97 | 29.15 | SW | 0 | 0.00 |
| 23 | 01/09 | 02:00 | 32 | 31 | 97 | 29.14 | WSW | 2 | 0.00 |
| 24 | 01/09 | 01:00 | 32 | 30 | 95 | 29.15 | S | 1 | 0.00 |